createdAt,value
2023-03-05T00:02:30.271Z,3.71
2023-03-05T00:05:00.680Z,3.71
2023-03-05T00:07:31.201Z,3.69
2023-03-05T00:10:04.113Z,3.69
2023-03-05T00:12:34.589Z,3.71
2023-03-05T00:15:05.727Z,3.68
2023-03-05T00:17:36.371Z,3.67
2023-03-05T00:20:08.812Z,3.68
2023-03-05T00:22:38.034Z,3.71
2023-03-05T00:25:10.576Z,3.72
2023-03-05T00:27:41.033Z,3.74
2023-03-05T00:30:14.429Z,3.75
2023-03-05T00:32:44.857Z,3.77
2023-03-05T00:35:15.671Z,3.77
2023-03-05T00:37:46.125Z,3.79
2023-03-05T00:40:17.066Z,3.81
2023-03-05T00:42:47.649Z,3.82
2023-03-05T00:45:18.300Z,3.81
2023-03-05T00:47:48.772Z,3.81
2023-03-05T00:50:19.146Z,3.83
2023-03-05T00:52:49.593Z,3.82
2023-03-05T00:55:20.338Z,3.78
2023-03-05T00:57:50.843Z,3.75
2023-03-05T01:00:22.631Z,3.74
2023-03-05T01:02:53.121Z,3.76
2023-03-05T01:05:23.679Z,3.77
2023-03-05T01:07:56.147Z,3.78
2023-03-05T01:10:27.732Z,3.78
2023-03-05T01:12:58.362Z,3.79
2023-03-05T01:15:29.073Z,3.78
2023-03-05T01:17:59.546Z,3.77
2023-03-05T01:20:30.661Z,3.75
2023-03-05T01:23:01.932Z,3.72
2023-03-05T01:25:32.925Z,3.70
2023-03-05T01:28:03.579Z,3.68
2023-03-05T01:30:34.495Z,3.66
2023-03-05T01:33:05.371Z,3.64
2023-03-05T01:35:35.895Z,3.63
2023-03-05T01:38:07.004Z,3.62
2023-03-05T01:40:37.442Z,3.63
2023-03-05T01:43:24.314Z,3.64
2023-03-05T01:46:29.779Z,3.60
2023-03-05T01:49:15.539Z,3.54
2023-03-05T01:51:54.011Z,3.52
2023-03-05T01:54:29.233Z,3.53
2023-03-05T01:57:03.270Z,3.53
2023-03-05T01:59:34.176Z,3.54
2023-03-05T02:02:06.062Z,3.54
2023-03-05T02:04:42.088Z,3.56
2023-03-05T02:07:13.711Z,3.56
2023-03-05T02:09:44.703Z,3.56
2023-03-05T02:12:16.348Z,3.56
2023-03-05T02:14:49.985Z,3.56
2023-03-05T02:17:20.585Z,3.58
2023-03-05T02:19:55.700Z,3.61
2023-03-05T02:22:26.784Z,3.64
2023-03-05T02:24:57.299Z,3.66
2023-03-05T02:27:35.635Z,3.68
2023-03-05T02:30:07.644Z,3.72
2023-03-05T02:32:38.225Z,3.72
2023-03-05T02:35:10.703Z,3.72
2023-03-05T02:37:41.507Z,3.72
2023-03-05T02:40:14.844Z,3.74
2023-03-05T02:42:46.784Z,3.74
2023-03-05T02:45:18.625Z,3.75
2023-03-05T02:47:49.164Z,3.75
2023-03-05T02:50:20.025Z,3.77
2023-03-05T02:52:50.641Z,3.77
2023-03-05T02:55:22.080Z,3.77
2023-03-05T02:57:52.568Z,3.75
2023-03-05T03:00:24.355Z,3.75
2023-03-05T03:02:55.114Z,3.74
2023-03-05T03:05:26.001Z,3.68
2023-03-05T03:07:56.424Z,3.53
2023-03-05T03:10:26.998Z,3.34
2023-03-05T03:12:57.656Z,3.20
2023-03-05T03:15:28.383Z,3.16
2023-03-05T03:17:58.824Z,3.13
2023-03-05T03:20:29.267Z,3.09
2023-03-05T03:22:59.872Z,3.05
2023-03-05T03:25:31.140Z,3.04
2023-03-05T03:28:01.614Z,3.01
2023-03-05T03:30:32.458Z,2.99
2023-03-05T03:33:03.422Z,2.97
2023-03-05T03:35:33.862Z,2.94
2023-03-05T03:38:04.334Z,2.91
2023-03-05T03:40:35.958Z,2.88
2023-03-05T03:43:06.407Z,2.87
2023-03-05T03:45:36.876Z,2.84
2023-03-05T03:48:07.618Z,2.83
2023-03-05T03:50:41.065Z,2.81
2023-03-05T03:53:14.228Z,2.82
2023-03-05T03:55:46.519Z,2.79
2023-03-05T03:58:17.004Z,2.77
2023-03-05T04:00:47.478Z,2.78
2023-03-05T04:03:17.895Z,2.79
2023-03-05T04:05:48.425Z,2.78
2023-03-05T04:08:18.857Z,2.77
2023-03-05T04:10:49.387Z,2.76
2023-03-05T04:13:19.887Z,2.75
2023-03-05T04:15:50.510Z,2.76
2023-03-05T04:18:21.077Z,2.80
2023-03-05T04:20:51.560Z,2.83
2023-03-05T04:23:21.987Z,2.83
2023-03-05T04:25:52.547Z,2.82
2023-03-05T04:28:23.024Z,2.82
2023-03-05T04:30:53.948Z,2.81
2023-03-05T04:33:24.428Z,2.78
2023-03-05T04:35:55.290Z,2.78
2023-03-05T04:38:25.762Z,2.79
2023-03-05T04:40:56.177Z,2.78
2023-03-05T04:43:26.748Z,2.77
2023-03-05T04:45:57.550Z,2.78
2023-03-05T04:48:28.072Z,2.78
2023-03-05T04:50:58.935Z,2.78
2023-03-05T04:53:29.372Z,2.78
2023-03-05T04:56:01.606Z,2.79
2023-03-05T04:58:32.390Z,2.81
2023-03-05T05:01:05.509Z,2.83
2023-03-05T05:03:36.410Z,2.83
2023-03-05T05:06:07.636Z,2.82
2023-03-05T05:08:38.308Z,2.82
2023-03-05T05:11:14.001Z,2.84
2023-03-05T05:13:44.577Z,2.92
2023-03-05T05:16:15.668Z,3.00
2023-03-05T05:18:46.349Z,3.08
2023-03-05T05:21:18.597Z,3.16
2023-03-05T05:23:49.113Z,3.21
2023-03-05T05:26:19.662Z,3.26
2023-03-05T05:28:50.553Z,3.27
2023-03-05T05:31:21.064Z,3.30
2023-03-05T05:33:51.654Z,3.29
2023-03-05T05:36:22.852Z,3.29
2023-03-05T05:38:53.306Z,3.29
2023-03-05T05:41:23.772Z,3.29
2023-03-05T05:43:54.277Z,3.28
2023-03-05T05:46:25.840Z,3.28
2023-03-05T05:48:56.405Z,3.28
2023-03-05T05:51:27.135Z,3.27
2023-03-05T05:53:57.626Z,3.26
2023-03-05T05:56:28.050Z,3.25
2023-03-05T05:58:58.501Z,3.25
2023-03-05T06:01:31.939Z,3.23
2023-03-05T06:04:02.845Z,3.19
2023-03-05T06:06:35.100Z,3.15
2023-03-05T06:09:06.524Z,3.10
2023-03-05T06:11:38.116Z,3.04
2023-03-05T06:14:09.069Z,2.96
2023-03-05T06:16:39.921Z,2.92
2023-03-05T06:19:12.508Z,2.90
2023-03-05T06:21:43.110Z,2.87
2023-03-05T06:24:14.075Z,2.91
2023-03-05T06:26:46.738Z,2.98
2023-03-05T06:29:17.355Z,3.02
2023-03-05T06:31:47.822Z,3.05
2023-03-05T06:34:18.289Z,3.10
2023-03-05T06:36:48.771Z,3.09
2023-03-05T06:39:19.252Z,3.11
2023-03-05T06:41:53.185Z,3.11
2023-03-05T06:44:23.617Z,3.11
2023-03-05T06:51:13.875Z,3.15
2023-03-05T06:58:03.642Z,3.26
2023-03-05T07:00:34.065Z,3.29
2023-03-05T07:03:05.126Z,3.34
2023-03-05T07:05:39.015Z,3.37
2023-03-05T07:08:09.665Z,3.40
2023-03-05T07:10:42.825Z,3.43
2023-03-05T07:13:13.871Z,3.46
2023-03-05T07:15:44.422Z,3.48
2023-03-05T07:18:14.944Z,3.50
2023-03-05T07:20:45.410Z,3.51
2023-03-05T07:23:15.931Z,3.52
2023-03-05T07:25:46.402Z,3.55
2023-03-05T07:28:16.909Z,3.56
2023-03-05T07:30:55.631Z,3.55
2023-03-05T07:33:24.993Z,3.54
2023-03-05T07:35:56.091Z,3.55
2023-03-05T07:38:26.663Z,3.56
2023-03-05T07:40:57.193Z,3.55
2023-03-05T07:43:27.620Z,3.56
2023-03-05T07:45:58.152Z,3.55
2023-03-05T07:48:28.713Z,3.57
2023-03-05T07:51:04.933Z,3.60
2023-03-05T07:53:35.672Z,3.64
2023-03-05T07:56:07.213Z,3.69
2023-03-05T07:58:37.938Z,3.75
2023-03-05T08:01:14.932Z,3.77
2023-03-05T08:03:46.075Z,3.79
2023-03-05T08:06:17.135Z,3.83
2023-03-05T08:08:47.558Z,3.94
2023-03-05T08:11:18.491Z,4.02
2023-03-05T08:13:49.341Z,4.12
2023-03-05T08:16:21.935Z,4.15
2023-03-05T08:18:55.118Z,4.17
2023-03-05T08:21:29.493Z,4.14
2023-03-05T08:24:00.872Z,3.99
2023-03-05T08:26:33.149Z,3.90
2023-03-05T08:29:03.632Z,3.80
2023-03-05T08:31:35.005Z,3.64
2023-03-05T08:34:06.074Z,3.54
2023-03-05T08:36:36.555Z,3.51
2023-03-05T08:39:08.670Z,3.51
2023-03-05T08:41:39.170Z,3.50
2023-03-05T08:44:09.709Z,3.48
2023-03-05T08:46:41.712Z,3.50
2023-03-05T08:49:12.504Z,3.49
2023-03-05T08:51:42.953Z,3.44
2023-03-05T08:54:13.371Z,3.40
2023-03-05T08:56:43.787Z,3.42
2023-03-05T08:59:14.588Z,3.48
2023-03-05T09:01:45.062Z,3.56
2023-03-05T09:04:15.899Z,3.62
2023-03-05T09:06:46.432Z,3.62
2023-03-05T09:10:11.529Z,3.63
2023-03-05T09:12:42.322Z,3.67
2023-03-05T09:15:13.845Z,3.64
2023-03-05T09:17:44.297Z,3.52
2023-03-05T09:20:16.450Z,3.40
2023-03-05T09:22:46.896Z,3.33
2023-03-05T09:25:17.463Z,3.35
2023-03-05T09:27:47.976Z,3.38
2023-03-05T09:30:19.589Z,3.50
2023-03-05T09:32:51.140Z,3.60
2023-03-05T09:35:21.904Z,3.60
2023-03-05T09:37:52.715Z,3.63
2023-03-05T09:40:26.600Z,3.66
2023-03-05T09:43:10.245Z,3.71
2023-03-05T09:45:45.804Z,3.79
2023-03-05T09:48:21.591Z,3.79
2023-03-05T09:51:00.305Z,3.78
2023-03-05T09:53:40.011Z,3.77
2023-03-05T09:56:16.700Z,3.83
2023-03-05T09:58:55.999Z,3.85
2023-03-05T10:01:32.094Z,3.83
2023-03-05T10:04:07.183Z,3.83
2023-03-05T10:06:42.564Z,3.92
2023-03-05T10:09:23.471Z,4.02
2023-03-05T10:11:58.264Z,4.04
2023-03-05T10:14:31.773Z,4.07
2023-03-05T10:17:40.844Z,4.14
2023-03-05T10:20:28.326Z,4.15
2023-03-05T10:23:34.644Z,4.21
2023-03-05T10:26:21.499Z,4.37
2023-03-05T10:29:03.692Z,4.53
2023-03-05T10:31:47.382Z,4.62
2023-03-05T10:34:52.081Z,4.62
2023-03-05T10:37:58.142Z,4.55
2023-03-05T10:40:36.184Z,4.46
2023-03-05T10:43:15.303Z,4.40
2023-03-05T10:45:48.704Z,4.29
2023-03-05T10:48:29.709Z,4.20
2023-03-05T10:51:05.427Z,4.07
2023-03-05T10:53:40.759Z,4.00
2023-03-05T10:56:14.018Z,3.99
2023-03-05T10:58:44.506Z,3.98
2023-03-05T11:01:24.762Z,3.96
2023-03-05T11:03:58.930Z,3.89
2023-03-05T11:10:42.345Z,3.79
2023-03-05T11:13:28.399Z,3.81
2023-03-05T11:20:36.258Z,3.87
2023-03-05T11:23:14.520Z,3.89
2023-03-05T11:26:01.035Z,3.94
2023-03-05T11:28:34.548Z,4.00
2023-03-05T11:31:09.462Z,4.11
2023-03-05T11:33:40.511Z,4.19
2023-03-05T11:36:26.191Z,4.21
2023-03-05T11:38:59.821Z,4.20
2023-03-05T11:41:35.561Z,4.19
2023-03-05T11:44:13.484Z,4.21
2023-03-05T11:46:47.983Z,4.31
2023-03-05T11:49:22.901Z,4.46
2023-03-05T11:52:01.660Z,4.56
2023-03-05T11:54:34.738Z,4.57
2023-03-05T11:57:08.327Z,4.58
2023-03-05T11:59:40.786Z,4.58
2023-03-05T12:02:19.444Z,4.58
2023-03-05T12:04:51.798Z,4.58
2023-03-05T12:07:28.581Z,4.58
2023-03-05T12:09:58.960Z,4.51
2023-03-05T12:12:42.190Z,4.43
2023-03-05T12:15:30.436Z,4.37
2023-03-05T12:18:12.001Z,4.37
2023-03-05T12:20:49.702Z,4.31
2023-03-05T12:23:22.482Z,4.32
2023-03-05T12:25:54.421Z,4.35
2023-03-05T12:28:54.535Z,4.40
2023-03-05T12:31:39.448Z,4.50
2023-03-05T12:34:48.297Z,4.62
2023-03-05T12:37:57.375Z,4.68
2023-03-05T12:40:29.533Z,4.71
2023-03-05T12:43:02.123Z,4.70
2023-03-05T12:45:40.768Z,4.65
2023-03-05T12:48:26.958Z,4.60
2023-03-05T12:51:01.726Z,4.40
2023-03-05T12:53:32.201Z,4.16
2023-03-05T12:56:13.983Z,3.97
2023-03-05T12:58:48.179Z,3.75
2023-03-05T13:01:33.083Z,3.69
2023-03-05T13:04:10.863Z,3.68
2023-03-05T13:06:41.999Z,3.65
2023-03-05T13:09:19.704Z,3.60
2023-03-05T13:11:52.830Z,3.57
2023-03-05T13:14:32.865Z,3.58
2023-03-05T13:17:04.873Z,3.63
2023-03-05T13:19:36.166Z,3.63
2023-03-05T13:22:13.039Z,3.57
2023-03-05T13:24:43.471Z,3.54
2023-03-05T13:27:25.972Z,3.50
2023-03-05T13:29:56.383Z,3.42
2023-03-05T13:32:31.112Z,3.37
2023-03-05T13:35:02.772Z,3.40
2023-03-05T13:37:36.701Z,3.43
2023-03-05T13:40:20.271Z,3.48
2023-03-05T13:42:51.142Z,3.47
2023-03-05T13:45:28.253Z,3.47
2023-03-05T13:48:01.367Z,3.41
2023-03-05T13:50:33.607Z,3.33
2023-03-05T13:53:19.481Z,3.34
2023-03-05T13:55:51.054Z,3.30
2023-03-05T13:58:53.386Z,3.24
2023-03-05T14:01:33.045Z,3.19
2023-03-05T14:04:08.623Z,3.20
2023-03-05T14:06:47.505Z,3.18
2023-03-05T14:09:23.482Z,3.12
2023-03-05T14:12:00.782Z,3.10
2023-03-05T14:14:35.312Z,3.12
2023-03-05T14:17:44.409Z,3.24
2023-03-05T14:20:34.504Z,3.39
2023-03-05T14:23:34.144Z,3.49
2023-03-05T14:26:24.232Z,3.68
2023-03-05T14:28:56.902Z,3.89
2023-03-05T14:31:29.329Z,4.02
2023-03-05T14:34:03.074Z,4.08
2023-03-05T14:36:34.867Z,4.12
2023-03-05T14:39:05.783Z,4.15
2023-03-05T14:41:40.049Z,4.15
2023-03-05T14:44:16.048Z,4.19
2023-03-05T14:46:49.782Z,4.22
2023-03-05T14:49:20.242Z,4.26
2023-03-05T14:51:50.717Z,4.28
2023-03-05T14:54:25.021Z,4.30
2023-03-05T14:56:55.898Z,4.32
2023-03-05T14:59:26.713Z,4.32
2023-03-05T15:01:57.660Z,4.33
2023-03-05T15:04:28.202Z,4.32
2023-03-05T15:06:58.617Z,4.32
2023-03-05T15:09:29.729Z,4.33
2023-03-05T15:16:19.065Z,4.25
2023-03-05T15:18:50.462Z,4.21
2023-03-05T15:21:20.919Z,4.18
2023-03-05T15:23:51.388Z,4.09
2023-03-05T15:26:22.034Z,4.03
2023-03-05T15:28:52.498Z,4.00
2023-03-05T15:31:23.098Z,3.96
2023-03-05T15:33:53.739Z,3.93
2023-03-05T15:36:24.210Z,3.91
2023-03-05T15:38:54.757Z,3.86
2023-03-05T15:41:25.236Z,3.78
2023-03-05T15:43:55.662Z,3.75
2023-03-05T15:46:26.278Z,3.72
2023-03-05T15:48:56.878Z,3.68
2023-03-05T15:51:27.505Z,3.68
2023-03-05T15:53:58.032Z,3.71
2023-03-05T15:56:28.550Z,3.67
2023-03-05T15:58:59.023Z,3.64
2023-03-05T16:01:29.681Z,3.63
2023-03-05T16:04:00.177Z,3.58
2023-03-05T16:06:31.381Z,3.58
2023-03-05T16:09:04.922Z,3.60
2023-03-05T16:11:37.360Z,3.64
2023-03-05T16:14:08.382Z,3.65
2023-03-05T16:16:39.546Z,3.65
2023-03-05T16:19:13.622Z,3.65
2023-03-05T16:21:44.410Z,3.65
2023-03-05T16:24:15.253Z,3.65
2023-03-05T16:26:45.877Z,3.64
2023-03-05T16:29:16.436Z,3.63
2023-03-05T16:31:47.754Z,3.59
2023-03-05T16:34:18.870Z,3.56
2023-03-05T16:36:52.932Z,3.54
2023-03-05T16:39:24.171Z,3.50
2023-03-05T16:41:54.825Z,3.49
2023-03-05T16:44:25.535Z,3.46
2023-03-05T16:46:56.569Z,3.45
2023-03-05T16:49:27.287Z,3.49
2023-03-05T16:51:59.430Z,3.53
2023-03-05T16:54:32.056Z,3.56
2023-03-05T16:57:02.863Z,3.58
2023-03-05T16:59:33.424Z,3.57
2023-03-05T17:02:04.120Z,3.53
2023-03-05T17:04:34.872Z,3.52
2023-03-05T17:07:05.558Z,3.50
2023-03-05T17:09:36.763Z,3.47
2023-03-05T17:12:07.861Z,3.43
2023-03-05T17:14:38.345Z,3.42
2023-03-05T17:17:08.800Z,3.43
2023-03-05T17:19:39.609Z,3.42
2023-03-05T17:22:12.926Z,3.41
2023-03-05T17:24:43.825Z,3.41
2023-03-05T17:27:14.332Z,3.39
2023-03-05T17:29:45.866Z,3.37
2023-03-05T17:32:16.400Z,3.37
2023-03-05T17:35:38.277Z,3.36
2023-03-05T17:38:11.021Z,3.33
2023-03-05T17:40:41.469Z,3.29
2023-03-05T17:51:33.456Z,3.03
2023-03-05T17:54:04.314Z,2.98
2023-03-05T17:56:34.839Z,3.02
2023-03-05T17:59:05.280Z,3.03
2023-03-05T18:01:36.627Z,3.07
2023-03-05T18:04:07.690Z,3.16
2023-03-05T18:06:38.244Z,3.24
2023-03-05T18:09:08.706Z,3.27
2023-03-05T18:11:39.181Z,3.29
2023-03-05T18:14:09.793Z,3.31
2023-03-05T18:16:40.381Z,3.34
2023-03-05T18:19:10.954Z,3.35
2023-03-05T18:21:42.284Z,3.33
2023-03-05T18:24:13.044Z,3.30
2023-03-05T18:26:43.448Z,3.28
2023-03-05T18:29:13.846Z,3.24
2023-03-05T18:31:44.284Z,3.22
2023-03-05T18:34:14.755Z,3.20
2023-03-05T18:36:45.269Z,3.18
2023-03-05T18:39:16.628Z,3.17
2023-03-05T18:41:47.781Z,3.17
2023-03-05T18:44:20.453Z,3.15
2023-03-05T18:46:51.310Z,3.09
2023-03-05T18:49:21.781Z,3.03
2023-03-05T18:51:52.344Z,2.98
2023-03-05T18:54:23.012Z,2.93
2023-03-05T18:56:53.535Z,2.87
2023-03-05T18:59:23.966Z,2.85
2023-03-05T19:01:54.465Z,2.84
2023-03-05T19:04:25.003Z,2.91
2023-03-05T19:06:55.453Z,2.92
2023-03-05T19:09:42.117Z,2.93
2023-03-05T19:12:12.588Z,2.96
2023-03-05T19:14:42.997Z,3.00
2023-03-05T19:17:13.642Z,3.00
2023-03-05T19:19:44.105Z,2.99
2023-03-05T19:22:14.800Z,2.97
2023-03-05T19:24:45.286Z,2.94
2023-03-05T19:27:16.001Z,2.94
2023-03-05T19:29:46.677Z,2.93
2023-03-05T19:32:18.771Z,2.93
2023-03-05T19:34:49.685Z,2.91
2023-03-05T19:37:20.184Z,2.88
2023-03-05T19:39:50.942Z,2.84
2023-03-05T19:42:21.488Z,2.82
2023-03-05T19:44:51.977Z,2.78
2023-03-05T19:47:22.498Z,2.73
2023-03-05T19:49:53.003Z,2.67
2023-03-05T19:52:23.590Z,2.60
2023-03-05T19:54:54.079Z,2.54
2023-03-05T19:57:24.574Z,2.51
2023-03-05T19:59:55.631Z,2.51
2023-03-05T20:02:26.087Z,2.49
2023-03-05T20:04:58.473Z,2.55
2023-03-05T20:07:29.113Z,2.59
2023-03-05T20:10:00.116Z,2.65
2023-03-05T20:12:30.651Z,2.68
2023-03-05T20:15:01.253Z,2.69
2023-03-05T20:17:31.703Z,2.68
2023-03-05T20:20:02.373Z,2.67
2023-03-05T20:22:32.829Z,2.64
2023-03-05T20:25:03.257Z,2.59
2023-03-05T20:27:34.481Z,2.56
2023-03-05T20:30:05.710Z,2.53
2023-03-05T20:32:36.409Z,2.51
2023-03-05T20:35:08.400Z,2.46
2023-03-05T20:37:49.418Z,2.41
2023-03-05T20:40:20.902Z,2.37
2023-03-05T20:42:52.342Z,2.35
2023-03-05T20:45:22.993Z,2.30
2023-03-05T20:47:53.681Z,2.25
2023-03-05T20:50:24.458Z,2.19
2023-03-05T20:52:54.909Z,2.17
2023-03-05T20:55:28.548Z,2.17
2023-03-05T20:57:59.510Z,2.15
2023-03-05T21:00:30.319Z,2.15
2023-03-05T21:03:00.931Z,2.20
2023-03-05T21:05:32.244Z,2.24
2023-03-05T21:08:04.312Z,2.27
2023-03-05T21:15:16.261Z,2.34
2023-03-05T21:17:46.937Z,2.33
2023-03-05T21:20:20.336Z,2.32
2023-03-05T21:22:50.874Z,2.31
2023-03-05T21:25:23.113Z,2.32
2023-03-05T21:27:58.363Z,2.32
2023-03-05T21:30:34.309Z,2.30
2023-03-05T21:33:06.922Z,2.29
2023-03-05T21:35:38.604Z,2.29
2023-03-05T21:38:10.690Z,2.27
2023-03-05T21:40:45.515Z,2.27
2023-03-05T21:43:18.529Z,2.23
2023-03-05T21:45:51.061Z,2.19
2023-03-05T21:48:20.561Z,2.16
2023-03-05T21:50:52.490Z,2.14
2023-03-05T21:57:43.426Z,2.05
2023-03-05T22:00:18.135Z,2.04
2023-03-05T22:02:48.582Z,2.03
2023-03-05T22:05:19.416Z,2.06
2023-03-05T22:07:49.878Z,2.11
2023-03-05T22:10:22.061Z,2.16
2023-03-05T22:12:56.678Z,2.22
2023-03-05T22:15:27.662Z,2.28
2023-03-05T22:17:58.295Z,2.35
2023-03-05T22:20:28.841Z,2.42
2023-03-05T22:22:59.348Z,2.45
2023-03-05T22:25:30.227Z,2.45
2023-03-05T22:28:00.733Z,2.44
2023-03-05T22:30:32.181Z,2.41
2023-03-05T22:33:03.381Z,2.38
2023-03-05T22:35:34.078Z,2.37
2023-03-05T22:38:04.594Z,2.33
2023-03-05T22:40:36.971Z,2.29
2023-03-05T22:43:07.598Z,2.29
2023-03-05T22:45:38.312Z,2.26
2023-03-05T22:48:10.422Z,2.22
2023-03-05T22:50:42.420Z,2.18
2023-03-05T22:53:13.550Z,2.15
2023-03-05T22:55:44.454Z,2.15
2023-03-05T22:58:14.872Z,2.19
2023-03-05T23:00:45.303Z,2.26
2023-03-05T23:03:15.777Z,2.32
2023-03-05T23:05:46.315Z,2.37
2023-03-05T23:08:16.781Z,2.40
2023-03-05T23:10:47.217Z,2.40
2023-03-05T23:13:17.860Z,2.42
2023-03-05T23:15:48.302Z,2.42
2023-03-05T23:18:18.837Z,2.41
2023-03-05T23:20:49.305Z,2.40
2023-03-05T23:23:19.756Z,2.38
2023-03-05T23:25:52.969Z,2.36
2023-03-05T23:28:23.406Z,2.33
2023-03-05T23:30:53.869Z,2.29
2023-03-05T23:33:25.915Z,2.25
2023-03-05T23:35:59.291Z,2.20
2023-03-05T23:38:31.462Z,2.16
2023-03-05T23:41:03.615Z,2.14
2023-03-05T23:43:34.054Z,2.08
2023-03-05T23:46:04.751Z,2.04
2023-03-05T23:48:35.247Z,1.98
2023-03-05T23:51:11.160Z,1.94
2023-03-05T23:53:41.582Z,1.89
2023-03-05T23:56:13.336Z,1.84
2023-03-05T23:58:43.836Z,1.86
